Pisek, ND (58273)

7:04 AM CDT on March 28, 2017 (GMT -0500)
Rural | | Change Station
Active Advisory: Flood Warning

Elev 869 ft 48.18 °N, 97.47 °W | Updated 15 seconds ago

Overcast
Overcast
32.9 °F
Feels Like 33 °F
N
0.0
Wind Variable Wind from SSW
Gusts 0.0 mph

Today
High -- | Low -- °F
--% Chance of Precip.
Yesterday
High -- | Low -- °F
Precip. -- in
Pressure 30.17 in
Visibility 10.0 miles
Clouds Overcast 10000 ft
Windchill 33 °F
Dew Point 33 °F
Humidity 99%
Rainfall 0.00 in
Snow Depth Not available.
7:16 AM 7:55 PM
New Moon, 0% visible
METAR KGAF 281155Z AUTO 34008KT 10SM OVC100 00/00 A3017 RMK AO2
Pressure 30.17 in
Visibility 10.0 miles
Clouds Overcast 10000 ft
Windchill 33 °F
Dew Point 33 °F
Humidity 99%
Rainfall 0.00 in
Snow Depth Not available.
7:16 AM 7:55 PM
New Moon, 0% visible
METAR KGAF 281155Z AUTO 34008KT 10SM OVC100 00/00 A3017 RMK AO2

Get Your Daily Forecast Email!

Thanks for signing up!

Be on the lookout for a verification email in your inbox.

You'll start receiving severe weather alerts in your inbox..

×

10-Day Weather Forecast

Almanac

Astronomy

Mar. 28, 2017 Rise Set
Actual Time
Civil Twilight
Nautical Twilight
Astronomical Twilight
Moon
Length of Visible Light
Length of Day
Tomorrow will be .
, % of the Moon is Illuminated

Today's Extremes

State Highs State Lows

Community

WunderPhotos

Upload Photos

1,962,540 photos uploaded!

WunderBlog® & News

Nearby

Air Quality

  Air Quality AQ Index Pollutant
Not available.

Snow Depth

Station Depth Elevation

Earthquake Activity

City Distance Mag. Time & Date
Minimum magnitude displayed is 2.5.

Earthquake Activity

City Distance Mag. Time & Date
Minimum magnitude displayed is 2.5.

Coastal Water Temperatures

Place Temperature

Stations

Nearby Weather Stations

Station Location Temp. Windchill Dew Point Humidity Wind Precip. Elev Updated Type
                   

Watches & Warnings

Flood Warning
Issued: 9:00 PM CDT Mar. 27, 2017 – National Weather Service

The Flood Warning continues for...
* ... Grafton... on the Park River.
* From Wednesday evening until further notice.
* At 8:30 PM Monday the stage was 9.6 feet.
* Major flood stage is 14.5 feet.
* Forecast... rise above flood stage by Wednesday evening and continue
to rise to near 15.5 feet by Saturday afternoon.
* Impact statement(s) - at 15.0 feet, storm sewer drains... armory.


Daily 7pm CDT/6pm CST forecast stage in feet:

date Tue Wed Thu Fri Sat sun Mon
(month/day) 03/28 03/29 03/30 03/31 04/01 04/02 04/03
Grafton 10.6 11.9 13.5 15.0 15.5 15.0 14.2
lat... Lon 4850 9749 4839 9750 4842 9716 4851 9715